createdAt,value
2019-04-29T00:00:32.970Z,1024.3369
2019-04-29T00:01:43.998Z,1024.2808
2019-04-29T00:02:43.202Z,1024.2973
2019-04-29T00:03:54.242Z,1024.2972
2019-04-29T00:04:53.415Z,1024.2761
2019-04-29T00:05:52.752Z,1024.2873
2019-04-29T00:07:03.789Z,1024.3039
2019-04-29T00:08:02.965Z,1024.2515
2019-04-29T00:09:13.995Z,1024.2316
2019-04-29T00:10:13.192Z,1024.2629
2019-04-29T00:11:24.230Z,1024.1909
2019-04-29T00:12:23.431Z,1024.2056
2019-04-29T00:13:22.641Z,1024.1878
2019-04-29T00:13:34.480Z,1024.2255
2019-04-29T00:14:33.684Z,1024.2519
2019-04-29T00:15:32.913Z,1024.249
2019-04-29T00:16:33.088Z,1024.2509
2019-04-29T00:17:44.143Z,1024.2711
2019-04-29T00:18:43.321Z,1024.2698
2019-04-29T00:19:42.508Z,1024.2392
2019-04-29T00:19:54.339Z,1024.2752
2019-04-29T00:20:53.611Z,1024.2543
2019-04-29T00:21:52.798Z,1024.2923
2019-04-29T00:23:03.816Z,1024.3074
2019-04-29T00:24:04.186Z,1024.2883
2019-04-29T00:25:03.173Z,1024.2802
2019-04-29T00:26:14.256Z,1024.3203
2019-04-29T00:27:13.446Z,1024.3876
2019-04-29T00:28:12.636Z,1024.3665
2019-04-29T00:28:24.468Z,1024.4254
2019-04-29T00:29:23.661Z,1024.3883
2019-04-29T00:30:22.857Z,1024.3658
2019-04-29T00:31:33.919Z,1024.3729
2019-04-29T00:32:33.105Z,1024.3616
2019-04-29T00:33:44.157Z,1024.3555
2019-04-29T00:34:43.349Z,1024.372
2019-04-29T00:35:42.568Z,1024.369
2019-04-29T00:35:54.400Z,1024.3937
2019-04-29T00:36:53.587Z,1024.3991
2019-04-29T00:37:52.796Z,1024.418
2019-04-29T00:39:03.852Z,1024.401
2019-04-29T00:40:03.033Z,1024.4278
2019-04-29T00:41:14.058Z,1024.3857
2019-04-29T00:42:13.241Z,1024.3924
2019-04-29T00:43:12.450Z,1024.3811
2019-04-29T00:43:24.289Z,1024.404
2019-04-29T00:44:23.522Z,1024.4291
2019-04-29T00:45:22.711Z,1024.3807
2019-04-29T00:45:34.552Z,1024.3826
2019-04-29T00:46:33.746Z,1024.4272
2019-04-29T00:47:32.952Z,1024.3792
2019-04-29T00:48:44.030Z,1024.3848
2019-04-29T00:49:43.234Z,1024.3851
2019-04-29T00:50:54.240Z,1024.4093
2019-04-29T00:51:53.405Z,1024.4482
2019-04-29T00:52:52.625Z,1024.3829
2019-04-29T00:53:04.535Z,1024.399
2019-04-29T00:54:03.714Z,1024.3746
2019-04-29T00:55:02.897Z,1024.3648
2019-04-29T00:56:13.923Z,1024.3712
2019-04-29T00:57:13.126Z,1024.3598
2019-04-29T00:58:24.162Z,1024.4006
2019-04-29T00:59:23.507Z,1024.4267
2019-04-29T01:00:22.696Z,1024.5004
2019-04-29T01:00:34.536Z,1024.4516
2019-04-29T01:01:33.727Z,1024.5021
2019-04-29T01:02:32.888Z,1024.5153
2019-04-29T01:03:43.896Z,1024.5087
2019-04-29T01:04:43.137Z,1024.5107
2019-04-29T01:05:54.186Z,1024.5286
2019-04-29T01:06:53.389Z,1024.5275
2019-04-29T01:07:52.560Z,1024.497
2019-04-29T01:08:04.474Z,1024.4805
2019-04-29T01:09:03.625Z,1024.5039
2019-04-29T01:10:02.863Z,1024.519
2019-04-29T01:11:13.908Z,1024.5133
2019-04-29T01:12:13.114Z,1024.5623
2019-04-29T01:13:24.194Z,1024.5039
2019-04-29T01:14:23.502Z,1024.5448
2019-04-29T01:15:22.753Z,1024.4909
2019-04-29T01:15:34.521Z,1024.5074
2019-04-29T01:16:33.716Z,1024.5122
2019-04-29T01:17:32.927Z,1024.4847
2019-04-29T01:18:43.918Z,1024.4914
2019-04-29T01:19:43.244Z,1024.4882
2019-04-29T01:20:54.265Z,1024.4781
2019-04-29T01:21:53.439Z,1024.4926
2019-04-29T01:22:52.634Z,1024.4632
2019-04-29T01:23:04.465Z,1024.4826
2019-04-29T01:24:03.652Z,1024.512
2019-04-29T01:25:02.990Z,1024.5213
2019-04-29T01:26:13.994Z,1024.5034
2019-04-29T01:27:13.189Z,1024.4836
2019-04-29T01:28:24.219Z,1024.4609
2019-04-29T01:29:23.462Z,1024.5261
2019-04-29T01:30:22.668Z,1024.5148
2019-04-29T01:30:34.499Z,1024.5034
2019-04-29T01:31:33.696Z,1024.5135
2019-04-29T01:32:32.876Z,1024.5156
2019-04-29T01:33:43.896Z,1024.5777
2019-04-29T01:34:43.092Z,1024.5305
2019-04-29T01:35:54.121Z,1024.5535
2019-04-29T01:36:53.308Z,1024.5441
2019-04-29T01:37:52.490Z,1024.5277
2019-04-29T01:38:04.326Z,1024.5439
2019-04-29T01:39:03.516Z,1024.5814
2019-04-29T01:40:02.729Z,1024.5585
2019-04-29T01:41:13.807Z,1024.565
2019-04-29T01:42:13.015Z,1024.5877
2019-04-29T01:43:24.012Z,1024.5992
2019-04-29T01:44:23.200Z,1024.6025
2019-04-29T01:45:34.224Z,1024.6025
2019-04-29T01:46:33.469Z,1024.6124
2019-04-29T01:47:32.730Z,1024.64
2019-04-29T01:47:44.564Z,1024.5977
2019-04-29T01:48:43.729Z,1024.6448
2019-04-29T01:49:42.925Z,1024.6676
2019-04-29T01:50:54.017Z,1024.6314
2019-04-29T01:51:54.216Z,1024.63
2019-04-29T01:52:53.409Z,1024.6597
2019-04-29T01:53:52.610Z,1024.6293
2019-04-29T01:54:04.452Z,1024.6492
2019-04-29T01:55:03.667Z,1024.6513
2019-04-29T01:56:03.001Z,1024.6406
2019-04-29T01:57:14.028Z,1024.627
2019-04-29T01:58:13.225Z,1024.659
2019-04-29T01:59:24.246Z,1024.6254
2019-04-29T02:00:23.687Z,1024.7064
2019-04-29T02:01:22.930Z,1024.6563
2019-04-29T02:02:33.993Z,1024.6572
2019-04-29T02:03:33.238Z,1024.677
2019-04-29T02:04:44.266Z,1024.6793
2019-04-29T02:05:43.457Z,1024.706
2019-04-29T02:06:42.637Z,1024.726
2019-04-29T02:06:54.479Z,1024.7261
2019-04-29T02:07:53.811Z,1024.7673
2019-04-29T02:08:52.976Z,1024.7559
2019-04-29T02:10:04.010Z,1024.8035
2019-04-29T02:11:03.191Z,1024.7481
2019-04-29T02:12:14.273Z,1024.7434
2019-04-29T02:13:13.487Z,1024.6893
2019-04-29T02:14:12.662Z,1024.7172
2019-04-29T02:14:24.500Z,1024.6748
2019-04-29T02:15:23.690Z,1024.6535
2019-04-29T02:16:22.860Z,1024.6503
2019-04-29T02:17:33.871Z,1024.5916
2019-04-29T02:18:33.089Z,1024.5639
2019-04-29T02:19:44.164Z,1024.6027
2019-04-29T02:20:43.360Z,1024.5604
2019-04-29T02:21:42.564Z,1024.5863
2019-04-29T02:21:54.392Z,1024.5617
2019-04-29T02:22:53.577Z,1024.5452
2019-04-29T02:23:52.912Z,1024.5971
2019-04-29T02:25:03.965Z,1024.5869
2019-04-29T02:26:03.134Z,1024.6127
2019-04-29T02:27:14.149Z,1024.6075
2019-04-29T02:28:13.380Z,1024.5699
2019-04-29T02:29:12.610Z,1024.5843
2019-04-29T02:29:24.452Z,1024.5631
2019-04-29T02:30:23.656Z,1024.5435
2019-04-29T02:31:22.857Z,1024.5563
2019-04-29T02:32:33.883Z,1024.5548
2019-04-29T02:33:33.235Z,1024.548
2019-04-29T02:34:44.253Z,1024.5758
2019-04-29T02:35:43.478Z,1024.5776
2019-04-29T02:36:42.666Z,1024.5762
2019-04-29T02:36:54.509Z,1024.5777
2019-04-29T02:37:53.692Z,1024.5522
2019-04-29T02:38:52.948Z,1024.523
2019-04-29T02:40:03.958Z,1024.5155
2019-04-29T02:41:03.172Z,1024.5139
2019-04-29T02:42:03.368Z,1024.5223
2019-04-29T02:43:02.550Z,1024.5109
2019-04-29T02:43:14.384Z,1024.5141
2019-04-29T02:45:13.791Z,1024.4406
2019-04-29T02:46:12.986Z,1024.4537
2019-04-29T02:47:23.982Z,1024.4584
2019-04-29T02:48:23.172Z,1024.4714
2019-04-29T02:49:34.212Z,1024.4598
2019-04-29T02:50:33.410Z,1024.4758
2019-04-29T02:51:32.669Z,1024.5001
2019-04-29T02:51:44.507Z,1024.5098
2019-04-29T02:52:43.706Z,1024.5473
2019-04-29T02:53:42.893Z,1024.5455
2019-04-29T02:54:43.051Z,1024.5305
2019-04-29T02:55:54.142Z,1024.5566
2019-04-29T02:56:53.298Z,1024.5206
2019-04-29T02:57:52.482Z,1024.5369
2019-04-29T02:58:04.318Z,1024.509
2019-04-29T02:59:03.482Z,1024.5256
2019-04-29T03:00:02.675Z,1024.4943
2019-04-29T03:00:14.512Z,1024.4993
2019-04-29T03:01:13.763Z,1024.5385
2019-04-29T03:02:12.941Z,1024.4946
2019-04-29T03:03:24.070Z,1024.4882
2019-04-29T03:04:23.142Z,1024.4836
2019-04-29T03:05:34.260Z,1024.4608
2019-04-29T03:06:33.556Z,1024.4432
2019-04-29T03:07:32.746Z,1024.4855
2019-04-29T03:08:43.773Z,1024.473
2019-04-29T03:09:42.936Z,1024.4339
2019-04-29T03:10:53.965Z,1024.4459
2019-04-29T03:11:54.236Z,1024.4624
2019-04-29T03:12:53.430Z,1024.461
2019-04-29T03:13:52.607Z,1024.499
2019-04-29T03:14:04.449Z,1024.489
2019-04-29T03:15:03.663Z,1024.5073
2019-04-29T03:16:02.842Z,1024.4636
2019-04-29T03:17:18.214Z,1024.5323
2019-04-29T03:18:14.060Z,1024.5815
2019-04-29T03:19:13.238Z,1024.5816
2019-04-29T03:20:24.234Z,1024.5849
2019-04-29T03:21:23.442Z,1024.6044
2019-04-29T03:22:22.658Z,1024.6077
2019-04-29T03:22:34.494Z,1024.5704
2019-04-29T03:23:33.661Z,1024.5441
2019-04-29T03:24:32.840Z,1024.5474
2019-04-29T03:25:43.865Z,1024.5587
2019-04-29T03:26:43.089Z,1024.5589
2019-04-29T03:27:54.229Z,1024.567
2019-04-29T03:28:53.420Z,1024.5539
2019-04-29T03:29:52.596Z,1024.5018
2019-04-29T03:30:04.429Z,1024.549
2019-04-29T03:31:03.622Z,1024.5458
2019-04-29T03:32:02.802Z,1024.546
2019-04-29T03:33:13.871Z,1024.5039
2019-04-29T03:34:13.060Z,1024.5123
2019-04-29T03:35:24.082Z,1024.4604
2019-04-29T03:36:23.280Z,1024.4819
2019-04-29T03:37:22.511Z,1024.4708
2019-04-29T03:37:34.338Z,1024.4495
2019-04-29T03:38:33.525Z,1024.4711
2019-04-29T03:39:32.693Z,1024.4794
2019-04-29T03:40:32.869Z,1024.4553
2019-04-29T03:41:43.918Z,1024.4047
2019-04-29T03:42:43.119Z,1024.4584
2019-04-29T03:43:54.188Z,1024.4342
2019-04-29T03:44:54.339Z,1024.4554
2019-04-29T03:45:53.520Z,1024.4831
2019-04-29T03:46:52.710Z,1024.5202
2019-04-29T03:47:04.553Z,1024.5106
2019-04-29T03:48:03.724Z,1024.5283
2019-04-29T03:49:03.050Z,1024.4858
2019-04-29T03:50:14.080Z,1024.4823
2019-04-29T03:51:13.274Z,1024.5064
2019-04-29T03:52:12.455Z,1024.5031
2019-04-29T03:52:24.302Z,1024.5241
2019-04-29T03:53:27.803Z,1024.5341
2019-04-29T03:54:23.695Z,1024.5062
2019-04-29T03:55:37.945Z,1024.4884
2019-04-29T03:56:23.046Z,1024.5323
2019-04-29T03:57:34.090Z,1024.604
2019-04-29T03:58:33.300Z,1024.5858
2019-04-29T03:59:32.476Z,1024.5695
2019-04-29T03:59:44.327Z,1024.5891
2019-04-29T04:00:44.164Z,1024.5875
2019-04-29T04:01:42.709Z,1024.6397
2019-04-29T04:01:54.555Z,1024.6381
2019-04-29T04:02:53.760Z,1024.6055
2019-04-29T04:03:52.939Z,1024.5827
2019-04-29T04:05:03.998Z,1024.6561
2019-04-29T04:06:03.160Z,1024.6217
2019-04-29T04:07:14.195Z,1024.6329
2019-04-29T04:08:13.353Z,1024.5827
2019-04-29T04:09:12.530Z,1024.6429
2019-04-29T04:09:24.400Z,1024.6508
2019-04-29T04:10:23.632Z,1024.6804
2019-04-29T04:11:22.816Z,1024.6837
2019-04-29T04:12:33.853Z,1024.6951
2019-04-29T04:13:33.026Z,1024.6921
2019-04-29T04:14:33.209Z,1024.6843
2019-04-29T04:15:32.520Z,1024.6728
2019-04-29T04:15:44.356Z,1024.7055
2019-04-29T04:16:43.529Z,1024.6796
2019-04-29T04:17:42.731Z,1024.7056
2019-04-29T04:17:54.552Z,1024.7092
2019-04-29T04:18:53.729Z,1024.7678
2019-04-29T04:19:52.920Z,1024.6527
2019-04-29T04:21:03.973Z,1024.6854
2019-04-29T04:22:03.178Z,1024.6448
2019-04-29T04:23:14.195Z,1024.5926
2019-04-29T04:24:13.365Z,1024.6121
2019-04-29T04:25:12.538Z,1024.638
2019-04-29T04:25:24.371Z,1024.6445
2019-04-29T04:26:23.615Z,1024.6445
2019-04-29T04:27:22.794Z,1024.6979
2019-04-29T04:28:33.825Z,1024.701
2019-04-29T04:29:33.983Z,1024.6734
2019-04-29T04:30:33.154Z,1024.6521
2019-04-29T04:31:44.189Z,1024.7043
2019-04-29T04:32:43.374Z,1024.7221
2019-04-29T04:33:42.573Z,1024.7581
2019-04-29T04:33:54.416Z,1024.7856
2019-04-29T04:34:53.613Z,1024.7772
2019-04-29T04:35:52.807Z,1024.805
2019-04-29T04:37:03.821Z,1024.8262
2019-04-29T04:38:03.002Z,1024.7789
2019-04-29T04:39:14.020Z,1024.8115
2019-04-29T04:40:13.203Z,1024.8195
2019-04-29T04:41:24.222Z,1024.728
2019-04-29T04:42:12.563Z,1024.7312
2019-04-29T04:42:24.408Z,1024.7883
2019-04-29T04:43:23.619Z,1024.7685
2019-04-29T04:44:22.801Z,1024.7279
2019-04-29T04:45:33.853Z,1024.7471
2019-04-29T04:46:33.040Z,1024.752
2019-04-29T04:47:44.050Z,1024.8104
2019-04-29T04:48:43.385Z,1024.8234
2019-04-29T04:49:42.564Z,1024.8068
2019-04-29T04:49:54.404Z,1024.8035
2019-04-29T04:50:53.587Z,1024.8393
2019-04-29T04:51:52.781Z,1024.885
2019-04-29T04:53:03.795Z,1024.9058
2019-04-29T04:54:03.008Z,1024.867
2019-04-29T04:55:14.035Z,1024.9636
2019-04-29T04:56:13.215Z,1024.9523
2019-04-29T04:57:24.236Z,1024.8861
2019-04-29T04:58:23.455Z,1024.9237
2019-04-29T04:59:22.674Z,1024.9158
2019-04-29T04:59:34.494Z,1024.9356
2019-04-29T05:00:33.664Z,1024.9453
2019-04-29T05:01:32.866Z,1024.9389
2019-04-29T05:02:43.884Z,1024.9858
2019-04-29T05:03:43.105Z,1024.9058
2019-04-29T05:04:54.119Z,1024.899
2019-04-29T05:05:53.308Z,1024.9217
2019-04-29T05:06:52.480Z,1024.9687
2019-04-29T05:07:04.323Z,1024.9312
2019-04-29T05:08:03.494Z,1024.9833
2019-04-29T05:09:03.719Z,1024.9814
2019-04-29T05:10:03.935Z,1025.0839
2019-04-29T05:11:04.103Z,1025.1081
2019-04-29T05:12:03.292Z,1025.1242
2019-04-29T05:13:02.470Z,1025.1678
2019-04-29T05:13:27.224Z,1025.1597
2019-04-29T05:14:02.632Z,1025.1563
2019-04-29T05:14:14.477Z,1025.179
2019-04-29T05:15:13.723Z,1025.2363
2019-04-29T05:16:12.926Z,1025.1956
2019-04-29T05:17:23.919Z,1025.2546
2019-04-29T05:18:23.108Z,1025.2481
2019-04-29T05:19:34.114Z,1025.2761
2019-04-29T05:20:33.318Z,1025.2741
2019-04-29T05:21:32.642Z,1025.2677
2019-04-29T05:21:44.490Z,1025.2236
2019-04-29T05:22:43.679Z,1025.264
2019-04-29T05:23:42.869Z,1025.2493
2019-04-29T05:24:53.903Z,1025.244
2019-04-29T05:25:53.087Z,1025.1967
2019-04-29T05:27:04.116Z,1025.1831
2019-04-29T05:28:03.301Z,1025.1812
2019-04-29T05:29:02.490Z,1025.1644
2019-04-29T05:29:14.331Z,1025.1756
2019-04-29T05:30:13.496Z,1025.196
2019-04-29T05:31:12.709Z,1025.1104
2019-04-29T05:31:24.538Z,1025.1445
2019-04-29T05:32:23.727Z,1025.1635
2019-04-29T05:33:22.915Z,1025.1413
2019-04-29T05:34:33.918Z,1025.1695
2019-04-29T05:35:33.149Z,1025.1767
2019-04-29T05:36:44.183Z,1025.1787
2019-04-29T05:37:43.345Z,1025.1667
2019-04-29T05:38:43.518Z,1025.2015
2019-04-29T05:39:42.700Z,1025.1466
2019-04-29T05:39:54.535Z,1025.1562
2019-04-29T05:40:56.622Z,1025.1176
2019-04-29T05:41:53.957Z,1025.1757
2019-04-29T05:42:54.050Z,1025.1993
2019-04-29T05:43:53.251Z,1025.1917
2019-04-29T05:45:04.255Z,1025.2119
2019-04-29T05:46:03.454Z,1025.2521
2019-04-29T05:47:02.763Z,1025.2396
2019-04-29T05:48:13.782Z,1025.2171
2019-04-29T05:49:12.935Z,1025.2702
2019-04-29T05:50:23.922Z,1025.2465
2019-04-29T05:51:27.163Z,1025.2587
2019-04-29T05:52:23.337Z,1025.2431
2019-04-29T05:53:22.517Z,1025.2667
2019-04-29T05:53:34.345Z,1025.2633
2019-04-29T05:54:33.585Z,1025.2835
2019-04-29T05:55:32.701Z,1025.2677
2019-04-29T05:55:44.537Z,1025.2694
2019-04-29T05:56:43.775Z,1025.293
2019-04-29T05:57:42.946Z,1025.3035
2019-04-29T05:58:53.964Z,1025.2679
2019-04-29T05:59:53.137Z,1025.2589
2019-04-29T06:01:04.160Z,1025.2969
2019-04-29T06:01:52.552Z,1025.3371
2019-04-29T06:02:04.390Z,1025.3548
2019-04-29T06:03:03.559Z,1025.3001
2019-04-29T06:04:02.738Z,1025.2908
2019-04-29T06:05:13.751Z,1025.3045
2019-04-29T06:06:13.102Z,1025.3497
2019-04-29T06:07:26.678Z,1025.3843
2019-04-29T06:08:13.486Z,1025.3723
2019-04-29T06:09:16.535Z,1025.4011
2019-04-29T06:11:03.520Z,1025.484
2019-04-29T06:12:03.986Z,1025.4783
2019-04-29T06:13:03.975Z,1025.4658
2019-04-29T06:14:03.614Z,1025.4542
2019-04-29T06:15:03.639Z,1025.4675
2019-04-29T06:16:03.518Z,1025.4903
2019-04-29T06:17:07.598Z,1025.4902
2019-04-29T06:18:03.782Z,1025.4707
2019-04-29T06:19:05.847Z,1025.4868
2019-04-29T06:19:52.470Z,1025.4616
2019-04-29T06:20:04.389Z,1025.4809
2019-04-29T06:20:52.776Z,1025.4458
2019-04-29T06:21:52.490Z,1025.4761
2019-04-29T06:23:04.281Z,1025.4731
2019-04-29T06:24:06.147Z,1025.5031
2019-04-29T06:24:52.900Z,1025.4351
2019-04-29T06:25:52.856Z,1025.4451
2019-04-29T06:27:04.364Z,1025.4769
2019-04-29T06:28:04.042Z,1025.4348
2019-04-29T06:29:05.791Z,1025.4467
2019-04-29T06:29:52.749Z,1025.434
2019-04-29T06:31:04.281Z,1025.3851
2019-04-29T06:32:03.931Z,1025.4332
2019-04-29T06:33:03.834Z,1025.4117
2019-04-29T06:34:05.077Z,1025.4476
2019-04-29T06:35:04.235Z,1025.4392
2019-04-29T06:36:04.241Z,1025.4056
2019-04-29T06:36:52.856Z,1025.3826
2019-04-29T06:37:52.921Z,1025.4344
2019-04-29T06:38:53.016Z,1025.4943
2019-04-29T06:39:52.947Z,1025.43
2019-04-29T06:41:05.429Z,1025.4357
2019-04-29T06:42:04.129Z,1025.4315
2019-04-29T06:42:53.300Z,1025.4429
2019-04-29T06:43:55.780Z,1025.4519
2019-04-29T06:44:52.855Z,1025.408
2019-04-29T06:46:03.897Z,1025.4808
2019-04-29T06:47:03.077Z,1025.4458
2019-04-29T06:48:14.110Z,1025.4251
2019-04-29T06:49:13.318Z,1025.4691
2019-04-29T06:50:12.538Z,1025.4675
2019-04-29T06:50:24.382Z,1025.4279
2019-04-29T06:51:23.559Z,1025.4346
2019-04-29T06:52:22.739Z,1025.409
2019-04-29T06:53:33.907Z,1025.4423
2019-04-29T06:54:33.584Z,1025.4376
2019-04-29T06:55:33.542Z,1025.4433
2019-04-29T06:56:33.366Z,1025.4569
2019-04-29T06:57:33.182Z,1025.4345
2019-04-29T06:58:36.560Z,1025.4381
2019-04-29T06:59:34.089Z,1025.4819
2019-04-29T07:00:33.858Z,1025.4479
2019-04-29T07:01:37.433Z,1025.4763
2019-04-29T07:02:34.136Z,1025.4671
2019-04-29T07:03:34.279Z,1025.5036
2019-04-29T07:04:36.996Z,1025.5341
2019-04-29T07:06:22.631Z,1025.5461
2019-04-29T07:06:34.548Z,1025.5543
2019-04-29T07:07:33.719Z,1025.5734
2019-04-29T07:08:32.897Z,1025.5589
2019-04-29T07:09:43.916Z,1025.5522
2019-04-29T07:10:43.240Z,1025.5898
2019-04-29T07:12:01.004Z,1025.5323
2019-04-29T07:12:46.724Z,1025.5705
2019-04-29T07:13:46.407Z,1025.5812
2019-04-29T07:14:43.867Z,1025.6157
2019-04-29T07:15:43.391Z,1025.5434
2019-04-29T07:16:54.203Z,1025.5966
2019-04-29T07:17:53.443Z,1025.561
2019-04-29T07:18:53.761Z,1025.5467
2019-04-29T07:19:52.916Z,1025.5213
2019-04-29T07:21:07.422Z,1025.5053
2019-04-29T07:22:04.235Z,1025.5009
2019-04-29T07:23:03.413Z,1025.5526
2019-04-29T07:24:02.587Z,1025.5216
2019-04-29T07:24:14.419Z,1025.5463
2019-04-29T07:25:13.607Z,1025.4537
2019-04-29T07:26:13.274Z,1025.4602
2019-04-29T07:27:12.442Z,1025.4731
2019-04-29T07:27:24.273Z,1025.479
2019-04-29T07:28:23.471Z,1025.4816
2019-04-29T07:29:29.373Z,1025.5136
2019-04-29T07:30:22.830Z,1025.4812
2019-04-29T07:31:35.138Z,1025.5169
2019-04-29T07:32:34.033Z,1025.5454
2019-04-29T07:33:33.220Z,1025.5146
2019-04-29T07:34:44.232Z,1025.5238
2019-04-29T07:35:47.768Z,1025.5345
2019-04-29T07:36:43.856Z,1025.52
2019-04-29T07:37:43.122Z,1025.5043
2019-04-29T07:38:56.538Z,1025.5252
2019-04-29T07:39:42.446Z,1025.5194
2019-04-29T07:39:54.278Z,1025.5087
2019-04-29T07:40:53.461Z,1025.5201
2019-04-29T07:41:53.667Z,1025.4425
2019-04-29T07:42:52.987Z,1025.473
2019-04-29T07:44:03.997Z,1025.5093
2019-04-29T07:45:03.153Z,1025.4788
2019-04-29T07:46:03.587Z,1025.4664
2019-04-29T07:47:02.912Z,1025.5073
2019-04-29T07:48:13.909Z,1025.4788
2019-04-29T07:49:17.041Z,1025.5074
2019-04-29T07:50:13.357Z,1025.5155
2019-04-29T07:51:24.283Z,1025.5333
2019-04-29T07:52:23.522Z,1025.5998
2019-04-29T07:53:34.303Z,1025.5803
2019-04-29T07:54:22.914Z,1025.5874
2019-04-29T07:55:25.872Z,1025.5996
2019-04-29T07:56:23.354Z,1025.6099
2019-04-29T07:57:22.723Z,1025.6298
2019-04-29T07:58:33.722Z,1025.603
2019-04-29T07:59:33.722Z,1025.586
2019-04-29T08:00:33.046Z,1025.5964
2019-04-29T08:02:32.515Z,1025.5472
2019-04-29T08:02:44.357Z,1025.5938
2019-04-29T08:03:43.525Z,1025.5611
2019-04-29T08:04:42.695Z,1025.6069
2019-04-29T08:04:54.534Z,1025.6262
2019-04-29T08:05:53.705Z,1025.5964
2019-04-29T08:06:52.897Z,1025.6279
2019-04-29T08:08:03.921Z,1025.6707
2019-04-29T08:09:07.754Z,1025.6673
2019-04-29T08:10:03.296Z,1025.6395
2019-04-29T08:11:14.265Z,1025.6262
2019-04-29T08:12:13.438Z,1025.6447
2019-04-29T08:14:10.755Z,1025.6689
2019-04-29T08:15:21.754Z,1025.6496
2019-04-29T08:16:20.945Z,1025.6921
2019-04-29T08:17:20.126Z,1025.6561
2019-04-29T08:17:31.968Z,1025.6193
2019-04-29T08:18:31.163Z,1025.7049
2019-04-29T08:19:31.508Z,1025.7045
2019-04-29T08:20:30.598Z,1025.6558
2019-04-29T08:21:45.387Z,1025.6639
2019-04-29T08:22:41.783Z,1025.6998
2019-04-29T08:23:42.295Z,1025.6981
2019-04-29T08:24:41.194Z,1025.668
2019-04-29T08:25:40.414Z,1025.6912
2019-04-29T08:26:51.415Z,1025.7282
2019-04-29T08:27:50.610Z,1025.7625
2019-04-29T08:29:01.895Z,1025.7548
2019-04-29T08:30:01.093Z,1025.7437
2019-04-29T08:31:00.381Z,1025.7512
2019-04-29T08:31:12.217Z,1025.7532
2019-04-29T08:32:11.387Z,1025.7745
2019-04-29T08:33:11.882Z,1025.7917
2019-04-29T08:34:10.756Z,1025.8521
2019-04-29T08:35:21.814Z,1025.8909
2019-04-29T08:36:21.002Z,1025.909
2019-04-29T08:37:20.193Z,1025.9239
2019-04-29T08:37:32.035Z,1025.9016
2019-04-29T08:38:31.238Z,1025.8955
2019-04-29T08:39:31.142Z,1025.9184
2019-04-29T08:40:45.040Z,1025.9315
2019-04-29T08:41:41.883Z,1025.9136
2019-04-29T08:42:46.517Z,1025.9523
2019-04-29T08:43:31.113Z,1025.8603
2019-04-29T08:44:31.107Z,1025.93
2019-04-29T08:45:34.627Z,1025.9239
2019-04-29T08:46:20.284Z,1025.9655
2019-04-29T08:47:22.924Z,1025.9501
2019-04-29T08:48:21.165Z,1026.0417
2019-04-29T08:49:20.978Z,1026.0306
2019-04-29T08:50:20.512Z,1026.0581
2019-04-29T08:51:31.540Z,1026.055
2019-04-29T08:52:30.783Z,1026.012
2019-04-29T08:53:41.812Z,1026.0745
2019-04-29T08:54:40.992Z,1026.0245
2019-04-29T08:55:40.176Z,1026.0495
2019-04-29T08:55:52.018Z,1026.0961
2019-04-29T08:57:02.123Z,1026.0437
2019-04-29T08:57:51.499Z,1026.0631
2019-04-29T08:58:51.085Z,1026.0512
2019-04-29T09:00:01.671Z,1026.0545
2019-04-29T09:01:00.865Z,1026.0769
2019-04-29T09:02:11.945Z,1026.0196
2019-04-29T09:03:11.111Z,1026.0487
2019-04-29T09:04:10.282Z,1026.0974
2019-04-29T09:04:22.121Z,1026.0809
2019-04-29T09:05:21.288Z,1026.0686
2019-04-29T09:06:21.448Z,1026.0831
2019-04-29T09:07:22.070Z,1026.0587
2019-04-29T09:08:20.838Z,1026.0798
2019-04-29T09:09:31.808Z,1026.0834
2019-04-29T09:10:32.917Z,1026.0927
2019-04-29T09:11:20.289Z,1026.1361
2019-04-29T09:11:32.128Z,1026.1184
2019-04-29T09:14:31.738Z,1026.0892
2019-04-29T09:15:30.943Z,1026.064
2019-04-29T09:16:30.127Z,1026.0897
2019-04-29T09:16:41.969Z,1026.1145
2019-04-29T09:17:41.165Z,1026.0628
2019-04-29T09:18:40.372Z,1026.0435
2019-04-29T09:18:52.199Z,1026.0065
2019-04-29T09:19:51.417Z,1026.0126
2019-04-29T09:20:50.677Z,1026.0736
2019-04-29T09:22:01.697Z,1026.0126
2019-04-29T09:23:00.900Z,1026.0673
2019-04-29T09:24:00.154Z,1026.0587
2019-04-29T09:24:11.991Z,1026.0736
2019-04-29T09:25:11.173Z,1026.086
2019-04-29T09:26:10.340Z,1026.1203
2019-04-29T09:26:24.181Z,1026.1099
2019-04-29T09:27:11.253Z,1026.1243
2019-04-29T09:28:26.950Z,1026.0699
2019-04-29T09:29:21.694Z,1026.0472
2019-04-29T09:30:20.907Z,1026.0839
2019-04-29T09:31:31.926Z,1026.0756
2019-04-29T09:32:33.909Z,1026.1094
2019-04-29T09:33:31.299Z,1026.0606
2019-04-29T09:34:30.506Z,1026.0891
2019-04-29T09:36:43.790Z,1026.062
2019-04-29T09:37:41.882Z,1026.0612
2019-04-29T09:38:41.065Z,1026.0316
2019-04-29T09:39:43.208Z,1026.0576
2019-04-29T09:40:40.527Z,1026.0546
2019-04-29T09:41:51.571Z,1026.0888
2019-04-29T09:42:51.861Z,1026.1
2019-04-29T09:43:50.908Z,1026.0224
2019-04-29T09:44:50.113Z,1026.0372
2019-04-29T09:45:02.042Z,1026.0798
2019-04-29T09:46:01.190Z,1026.0496
2019-04-29T09:47:00.385Z,1026.0684
2019-04-29T09:47:12.219Z,1026.096
2019-04-29T09:48:11.415Z,1026.0502
2019-04-29T09:49:10.610Z,1026.0338
2019-04-29T09:50:21.797Z,1026.0372
2019-04-29T09:51:22.424Z,1026.0202
2019-04-29T09:52:21.184Z,1026.0434
2019-04-29T09:53:20.384Z,1026.033
2019-04-29T09:53:32.220Z,1026.0148
2019-04-29T09:54:31.414Z,1026.0802
2019-04-29T09:55:30.660Z,1026.0479
2019-04-29T09:56:41.688Z,1026.0375
2019-04-29T09:57:40.878Z,1026.034
2019-04-29T09:58:51.906Z,1026.043
2019-04-29T09:59:51.107Z,1025.9892
2019-04-29T10:00:50.399Z,1026.0484
2019-04-29T10:02:01.499Z,1025.9865
2019-04-29T10:03:02.705Z,1026.038
2019-04-29T10:04:00.889Z,1025.9868
2019-04-29T10:05:11.915Z,1025.979
2019-04-29T10:06:12.514Z,1025.9761
2019-04-29T10:07:11.332Z,1025.9967
2019-04-29T10:08:10.537Z,1026.0103
2019-04-29T10:09:21.583Z,1025.9443
2019-04-29T10:10:20.771Z,1025.9174
2019-04-29T10:11:31.867Z,1025.8682
2019-04-29T10:12:31.064Z,1025.8826
2019-04-29T10:13:30.288Z,1025.8892
2019-04-29T10:13:42.123Z,1025.8112
2019-04-29T10:14:41.312Z,1025.8843
2019-04-29T10:15:40.644Z,1025.7989
2019-04-29T10:16:51.686Z,1025.7769
2019-04-29T10:17:55.467Z,1025.7691
2019-04-29T10:18:51.047Z,1025.805
2019-04-29T10:19:50.238Z,1025.7913
2019-04-29T10:20:02.100Z,1025.8087
2019-04-29T10:21:01.292Z,1025.7686
2019-04-29T10:22:00.527Z,1025.7789
2019-04-29T10:23:11.549Z,1025.7749
2019-04-29T10:24:10.755Z,1025.7515
2019-04-29T10:25:21.798Z,1025.7399
2019-04-29T10:26:21.040Z,1025.7259
2019-04-29T10:27:20.226Z,1025.7041
2019-04-29T10:27:32.058Z,1025.752
2019-04-29T10:28:31.254Z,1025.7677
2019-04-29T10:29:30.463Z,1025.7045
2019-04-29T10:30:41.487Z,1025.7155
2019-04-29T10:31:40.695Z,1025.7342
2019-04-29T10:32:51.710Z,1025.6706
2019-04-29T10:33:54.752Z,1025.67
2019-04-29T10:34:51.095Z,1025.6734
2019-04-29T10:35:50.271Z,1025.6784
2019-04-29T10:36:02.115Z,1025.7314
2019-04-29T10:37:01.315Z,1025.6888
2019-04-29T10:38:02.767Z,1025.697
2019-04-29T10:39:00.785Z,1025.6943
2019-04-29T10:40:11.834Z,1025.6998
2019-04-29T10:41:11.004Z,1025.7171
2019-04-29T10:42:10.199Z,1025.7473
2019-04-29T10:42:23.017Z,1025.739
2019-04-29T10:43:11.304Z,1025.7244
2019-04-29T10:44:11.614Z,1025.7403
2019-04-29T10:45:10.805Z,1025.7373
2019-04-29T10:46:21.857Z,1025.7193
2019-04-29T10:47:21.057Z,1025.7014
2019-04-29T10:48:20.253Z,1025.6663
2019-04-29T10:48:32.089Z,1025.6895
2019-04-29T10:49:34.696Z,1025.648
2019-04-29T10:50:31.462Z,1025.6923